sensor_id;sensor_type;location;lat;lon;timestamp;P1;durP1;ratioP1;P2;durP2;ratioP2
60430;SDS011;46285;45.122;20.726;2024-03-22T00:07:05;185.05;;;111.97;;
60430;SDS011;46285;45.122;20.726;2024-03-22T00:17:07;202.70;;;119.13;;
60430;SDS011;46285;45.122;20.726;2024-03-22T00:27:09;156.57;;;96.15;;
60430;SDS011;46285;45.122;20.726;2024-03-22T00:37:12;251.13;;;134.52;;
60430;SDS011;46285;45.122;20.726;2024-03-22T00:47:14;114.80;;;68.75;;
60430;SDS011;46285;45.122;20.726;2024-03-22T00:57:16;220.82;;;117.55;;
60430;SDS011;46285;45.122;20.726;2024-03-22T01:07:18;160.90;;;92.70;;
60430;SDS011;46285;45.122;20.726;2024-03-22T01:17:20;144.68;;;84.57;;
60430;SDS011;46285;45.122;20.726;2024-03-22T01:27:23;108.22;;;66.43;;
60430;SDS011;46285;45.122;20.726;2024-03-22T01:37:25;75.90;;;48.60;;
60430;SDS011;46285;45.122;20.726;2024-03-22T01:47:27;74.13;;;47.63;;
60430;SDS011;46285;45.122;20.726;2024-03-22T01:57:29;50.10;;;31.60;;
60430;SDS011;46285;45.122;20.726;2024-03-22T02:07:31;39.13;;;23.90;;
60430;SDS011;46285;45.122;20.726;2024-03-22T02:17:33;41.45;;;23.13;;
60430;SDS011;46285;45.122;20.726;2024-03-22T02:27:34;41.10;;;25.33;;
60430;SDS011;46285;45.122;20.726;2024-03-22T02:37:36;48.60;;;28.77;;
60430;SDS011;46285;45.122;20.726;2024-03-22T02:47:38;41.33;;;27.95;;
60430;SDS011;46285;45.122;20.726;2024-03-22T02:57:41;35.08;;;22.17;;
60430;SDS011;46285;45.122;20.726;2024-03-22T03:07:43;35.13;;;22.02;;
60430;SDS011;46285;45.122;20.726;2024-03-22T03:17:48;32.60;;;21.17;;
60430;SDS011;46285;45.122;20.726;2024-03-22T03:27:49;41.13;;;26.55;;
60430;SDS011;46285;45.122;20.726;2024-03-22T03:37:51;46.42;;;25.27;;
60430;SDS011;46285;45.122;20.726;2024-03-22T03:47:53;44.20;;;25.75;;
60430;SDS011;46285;45.122;20.726;2024-03-22T03:57:55;43.33;;;27.73;;
60430;SDS011;46285;45.122;20.726;2024-03-22T04:07:57;43.33;;;26.90;;
60430;SDS011;46285;45.122;20.726;2024-03-22T04:17:59;59.65;;;35.63;;
60430;SDS011;46285;45.122;20.726;2024-03-22T04:28:01;52.47;;;32.42;;
60430;SDS011;46285;45.122;20.726;2024-03-22T04:38:03;51.45;;;32.25;;
60430;SDS011;46285;45.122;20.726;2024-03-22T04:48:05;57.88;;;36.45;;
60430;SDS011;46285;45.122;20.726;2024-03-22T04:58:07;51.42;;;30.98;;
60430;SDS011;46285;45.122;20.726;2024-03-22T05:08:09;53.55;;;35.95;;
60430;SDS011;46285;45.122;20.726;2024-03-22T05:18:10;43.33;;;30.70;;
60430;SDS011;46285;45.122;20.726;2024-03-22T05:28:12;137.75;;;81.70;;
60430;SDS011;46285;45.122;20.726;2024-03-22T05:38:14;89.05;;;46.47;;
60430;SDS011;46285;45.122;20.726;2024-03-22T05:48:16;58.80;;;33.80;;
60430;SDS011;46285;45.122;20.726;2024-03-22T05:58:18;27.42;;;19.25;;
60430;SDS011;46285;45.122;20.726;2024-03-22T06:08:20;29.15;;;19.40;;
60430;SDS011;46285;45.122;20.726;2024-03-22T06:18:22;30.70;;;18.83;;
60430;SDS011;46285;45.122;20.726;2024-03-22T06:28:26;57.85;;;36.72;;
60430;SDS011;46285;45.122;20.726;2024-03-22T06:38:28;31.88;;;18.80;;
60430;SDS011;46285;45.122;20.726;2024-03-22T06:48:30;23.85;;;15.95;;
60430;SDS011;46285;45.122;20.726;2024-03-22T06:58:32;23.95;;;15.93;;
60430;SDS011;46285;45.122;20.726;2024-03-22T07:08:34;20.63;;;14.95;;
60430;SDS011;46285;45.122;20.726;2024-03-22T07:18:36;20.05;;;14.60;;
60430;SDS011;46285;45.122;20.726;2024-03-22T07:28:38;23.33;;;13.88;;
60430;SDS011;46285;45.122;20.726;2024-03-22T07:38:39;20.40;;;14.88;;
60430;SDS011;46285;45.122;20.726;2024-03-22T07:48:41;16.42;;;12.35;;
60430;SDS011;46285;45.122;20.726;2024-03-22T07:58:43;19.23;;;11.90;;
60430;SDS011;46285;45.122;20.726;2024-03-22T08:08:45;20.08;;;12.25;;
60430;SDS011;46285;45.122;20.726;2024-03-22T08:18:47;18.52;;;12.20;;
60430;SDS011;46285;45.122;20.726;2024-03-22T08:28:49;14.88;;;10.95;;
60430;SDS011;46285;45.122;20.726;2024-03-22T08:38:51;15.88;;;11.10;;
60430;SDS011;46285;45.122;20.726;2024-03-22T08:48:53;16.10;;;10.05;;
60430;SDS011;46285;45.122;20.726;2024-03-22T08:58:55;17.15;;;11.85;;
60430;SDS011;46285;45.122;20.726;2024-03-22T09:08:57;17.95;;;12.23;;
60430;SDS011;46285;45.122;20.726;2024-03-22T09:18:59;18.40;;;12.48;;
60430;SDS011;46285;45.122;20.726;2024-03-22T09:29:01;20.65;;;11.40;;
60430;SDS011;46285;45.122;20.726;2024-03-22T09:39:04;18.63;;;11.10;;
60430;SDS011;46285;45.122;20.726;2024-03-22T09:49:06;16.83;;;11.82;;
60430;SDS011;46285;45.122;20.726;2024-03-22T09:59:08;23.75;;;12.27;;
60430;SDS011;46285;45.122;20.726;2024-03-22T10:09:14;19.73;;;12.07;;
60430;SDS011;46285;45.122;20.726;2024-03-22T10:29:20;22.48;;;12.73;;
60430;SDS011;46285;45.122;20.726;2024-03-22T10:39:23;20.40;;;12.75;;
60430;SDS011;46285;45.122;20.726;2024-03-22T10:49:26;18.05;;;12.18;;
60430;SDS011;46285;45.122;20.726;2024-03-22T10:59:33;17.52;;;12.07;;
60430;SDS011;46285;45.122;20.726;2024-03-22T11:09:35;19.67;;;12.63;;
60430;SDS011;46285;45.122;20.726;2024-03-22T11:19:37;17.88;;;13.07;;
60430;SDS011;46285;45.122;20.726;2024-03-22T11:29:39;21.60;;;14.57;;
60430;SDS011;46285;45.122;20.726;2024-03-22T11:39:42;21.48;;;14.35;;
60430;SDS011;46285;45.122;20.726;2024-03-22T11:49:44;19.65;;;12.55;;
60430;SDS011;46285;45.122;20.726;2024-03-22T11:59:46;19.73;;;11.35;;
60430;SDS011;46285;45.122;20.726;2024-03-22T12:09:49;19.65;;;13.13;;
60430;SDS011;46285;45.122;20.726;2024-03-22T12:19:53;18.50;;;11.97;;
60430;SDS011;46285;45.122;20.726;2024-03-22T12:29:55;24.83;;;14.23;;
60430;SDS011;46285;45.122;20.726;2024-03-22T12:39:57;16.95;;;10.88;;
60430;SDS011;46285;45.122;20.726;2024-03-22T12:49:59;19.63;;;11.48;;
60430;SDS011;46285;45.122;20.726;2024-03-22T13:00:01;19.55;;;11.20;;
60430;SDS011;46285;45.122;20.726;2024-03-22T13:10:05;17.83;;;10.80;;
60430;SDS011;46285;45.122;20.726;2024-03-22T13:20:07;17.23;;;10.95;;
60430;SDS011;46285;45.122;20.726;2024-03-22T13:30:14;16.80;;;10.82;;
60430;SDS011;46285;45.122;20.726;2024-03-22T13:40:16;18.58;;;11.75;;
60430;SDS011;46285;45.122;20.726;2024-03-22T13:50:18;19.00;;;11.48;;
60430;SDS011;46285;45.122;20.726;2024-03-22T14:00:21;15.88;;;9.88;;
60430;SDS011;46285;45.122;20.726;2024-03-22T14:20:28;15.98;;;8.82;;
60430;SDS011;46285;45.122;20.726;2024-03-22T14:30:30;17.45;;;9.80;;
60430;SDS011;46285;45.122;20.726;2024-03-22T14:40:32;17.40;;;10.40;;
60430;SDS011;46285;45.122;20.726;2024-03-22T14:50:38;16.38;;;8.95;;
60430;SDS011;46285;45.122;20.726;2024-03-22T15:00:40;22.13;;;11.80;;
60430;SDS011;46285;45.122;20.726;2024-03-22T15:10:42;29.60;;;14.95;;
60430;SDS011;46285;45.122;20.726;2024-03-22T15:20:44;17.70;;;9.70;;
60430;SDS011;46285;45.122;20.726;2024-03-22T15:30:47;17.70;;;11.07;;
60430;SDS011;46285;45.122;20.726;2024-03-22T15:40:49;41.63;;;29.92;;
60430;SDS011;46285;45.122;20.726;2024-03-22T15:50:52;20.65;;;13.75;;
60430;SDS011;46285;45.122;20.726;2024-03-22T16:00:57;27.48;;;20.10;;
60430;SDS011;46285;45.122;20.726;2024-03-22T16:11:00;38.47;;;19.95;;
60430;SDS011;46285;45.122;20.726;2024-03-22T16:21:02;29.00;;;19.00;;
60430;SDS011;46285;45.122;20.726;2024-03-22T16:31:04;35.28;;;22.73;;
60430;SDS011;46285;45.122;20.726;2024-03-22T16:41:06;67.35;;;38.80;;
60430;SDS011;46285;45.122;20.726;2024-03-22T16:51:08;68.22;;;43.70;;
60430;SDS011;46285;45.122;20.726;2024-03-22T17:01:10;74.50;;;48.10;;
60430;SDS011;46285;45.122;20.726;2024-03-22T17:11:12;114.80;;;74.60;;
60430;SDS011;46285;45.122;20.726;2024-03-22T17:21:15;216.32;;;136.23;;
60430;SDS011;46285;45.122;20.726;2024-03-22T17:31:18;225.07;;;143.30;;
60430;SDS011;46285;45.122;20.726;2024-03-22T17:41:20;164.35;;;110.07;;
60430;SDS011;46285;45.122;20.726;2024-03-22T17:51:24;257.23;;;166.77;;
60430;SDS011;46285;45.122;20.726;2024-03-22T18:01:26;369.55;;;243.15;;
60430;SDS011;46285;45.122;20.726;2024-03-22T18:11:28;177.93;;;113.03;;
60430;SDS011;46285;45.122;20.726;2024-03-22T18:21:30;202.60;;;129.45;;
60430;SDS011;46285;45.122;20.726;2024-03-22T18:31:31;214.38;;;139.45;;
60430;SDS011;46285;45.122;20.726;2024-03-22T18:41:33;349.90;;;207.98;;
60430;SDS011;46285;45.122;20.726;2024-03-22T18:51:36;248.75;;;154.15;;
60430;SDS011;46285;45.122;20.726;2024-03-22T19:01:38;207.27;;;134.10;;
60430;SDS011;46285;45.122;20.726;2024-03-22T19:11:40;206.70;;;132.40;;
60430;SDS011;46285;45.122;20.726;2024-03-22T19:21:42;302.27;;;171.43;;
60430;SDS011;46285;45.122;20.726;2024-03-22T19:31:44;292.27;;;175.07;;
60430;SDS011;46285;45.122;20.726;2024-03-22T19:41:48;320.88;;;182.55;;
60430;SDS011;46285;45.122;20.726;2024-03-22T19:51:50;190.10;;;116.75;;
60430;SDS011;46285;45.122;20.726;2024-03-22T20:01:53;147.20;;;86.15;;
60430;SDS011;46285;45.122;20.726;2024-03-22T20:11:55;161.90;;;97.03;;
60430;SDS011;46285;45.122;20.726;2024-03-22T20:21:58;111.32;;;68.38;;
60430;SDS011;46285;45.122;20.726;2024-03-22T20:32:00;144.35;;;82.03;;
